sensor_id;sensor_type;location;lat;lon;timestamp;P1;durP1;ratioP1;P2;durP2;ratioP2
23179;SDS011;11758;45.756;11.432;2023-02-01T00:01:55;109.00;;;47.67;;
23179;SDS011;11758;45.756;11.432;2023-02-01T00:04:21;118.67;;;47.97;;
23179;SDS011;11758;45.756;11.432;2023-02-01T00:06:48;112.67;;;47.67;;
23179;SDS011;11758;45.756;11.432;2023-02-01T00:09:14;125.33;;;50.47;;
23179;SDS011;11758;45.756;11.432;2023-02-01T00:11:40;119.13;;;46.90;;
23179;SDS011;11758;45.756;11.432;2023-02-01T00:14:06;106.63;;;47.17;;
23179;SDS011;11758;45.756;11.432;2023-02-01T00:16:33;111.80;;;46.40;;
23179;SDS011;11758;45.756;11.432;2023-02-01T00:19:17;105.50;;;43.00;;
23179;SDS011;11758;45.756;11.432;2023-02-01T00:21:53;98.80;;;41.87;;
23179;SDS011;11758;45.756;11.432;2023-02-01T00:24:19;107.83;;;43.83;;
23179;SDS011;11758;45.756;11.432;2023-02-01T00:26:45;100.03;;;39.47;;
23179;SDS011;11758;45.756;11.432;2023-02-01T00:29:13;91.40;;;38.70;;
23179;SDS011;11758;45.756;11.432;2023-02-01T00:31:39;83.97;;;36.67;;
23179;SDS011;11758;45.756;11.432;2023-02-01T00:34:05;86.00;;;37.13;;
23179;SDS011;11758;45.756;11.432;2023-02-01T00:36:32;80.83;;;36.70;;
23179;SDS011;11758;45.756;11.432;2023-02-01T00:38:58;80.37;;;34.93;;
23179;SDS011;11758;45.756;11.432;2023-02-01T00:41:24;77.63;;;34.77;;
23179;SDS011;11758;45.756;11.432;2023-02-01T00:43:50;85.03;;;34.17;;
23179;SDS011;11758;45.756;11.432;2023-02-01T00:46:17;81.20;;;34.23;;
23179;SDS011;11758;45.756;11.432;2023-02-01T00:48:44;77.67;;;33.23;;
23179;SDS011;11758;45.756;11.432;2023-02-01T00:51:11;80.73;;;34.60;;
23179;SDS011;11758;45.756;11.432;2023-02-01T00:53:38;84.83;;;33.50;;
23179;SDS011;11758;45.756;11.432;2023-02-01T00:56:04;84.47;;;33.83;;
23179;SDS011;11758;45.756;11.432;2023-02-01T00:58:31;88.50;;;34.17;;
23179;SDS011;11758;45.756;11.432;2023-02-01T01:01:16;73.13;;;29.83;;
23179;SDS011;11758;45.756;11.432;2023-02-01T01:03:44;59.57;;;23.03;;
23179;SDS011;11758;45.756;11.432;2023-02-01T01:06:11;53.57;;;21.80;;
23179;SDS011;11758;45.756;11.432;2023-02-01T01:08:38;57.90;;;22.10;;
23179;SDS011;11758;45.756;11.432;2023-02-01T01:11:06;61.33;;;23.10;;
23179;SDS011;11758;45.756;11.432;2023-02-01T01:13:32;60.60;;;23.27;;
23179;SDS011;11758;45.756;11.432;2023-02-01T01:16:02;66.23;;;24.47;;
23179;SDS011;11758;45.756;11.432;2023-02-01T01:18:28;58.80;;;24.00;;
23179;SDS011;11758;45.756;11.432;2023-02-01T01:20:55;56.93;;;23.13;;
23179;SDS011;11758;45.756;11.432;2023-02-01T01:23:22;57.93;;;23.40;;
23179;SDS011;11758;45.756;11.432;2023-02-01T01:25:48;57.50;;;22.13;;
23179;SDS011;11758;45.756;11.432;2023-02-01T01:28:14;61.70;;;22.90;;
23179;SDS011;11758;45.756;11.432;2023-02-01T01:30:40;51.97;;;21.37;;
23179;SDS011;11758;45.756;11.432;2023-02-01T01:33:06;57.43;;;22.87;;
23179;SDS011;11758;45.756;11.432;2023-02-01T01:35:32;52.87;;;22.70;;
23179;SDS011;11758;45.756;11.432;2023-02-01T01:37:59;59.13;;;23.70;;
23179;SDS011;11758;45.756;11.432;2023-02-01T01:40:26;55.30;;;23.27;;
23179;SDS011;11758;45.756;11.432;2023-02-01T01:42:52;53.20;;;22.60;;
23179;SDS011;11758;45.756;11.432;2023-02-01T01:45:21;50.77;;;22.73;;
23179;SDS011;11758;45.756;11.432;2023-02-01T01:47:48;57.50;;;22.20;;
23179;SDS011;11758;45.756;11.432;2023-02-01T01:50:18;56.03;;;21.10;;
23179;SDS011;11758;45.756;11.432;2023-02-01T01:52:46;59.07;;;21.53;;
23179;SDS011;11758;45.756;11.432;2023-02-01T01:55:14;54.87;;;21.50;;
23179;SDS011;11758;45.756;11.432;2023-02-01T01:57:43;52.63;;;21.67;;
23179;SDS011;11758;45.756;11.432;2023-02-01T02:00:14;55.40;;;22.33;;
23179;SDS011;11758;45.756;11.432;2023-02-01T02:02:44;50.43;;;21.53;;
23179;SDS011;11758;45.756;11.432;2023-02-01T02:05:11;57.03;;;21.67;;
23179;SDS011;11758;45.756;11.432;2023-02-01T02:07:39;54.53;;;22.10;;
23179;SDS011;11758;45.756;11.432;2023-02-01T02:10:07;52.93;;;21.10;;
23179;SDS011;11758;45.756;11.432;2023-02-01T02:12:37;55.47;;;21.90;;
23179;SDS011;11758;45.756;11.432;2023-02-01T02:15:04;53.97;;;21.33;;
23179;SDS011;11758;45.756;11.432;2023-02-01T02:20:27;45.20;;;18.17;;
23179;SDS011;11758;45.756;11.432;2023-02-01T02:23:02;48.93;;;19.23;;
23179;SDS011;11758;45.756;11.432;2023-02-01T02:28:13;56.97;;;20.77;;
23179;SDS011;11758;45.756;11.432;2023-02-01T02:38:50;46.93;;;19.80;;
23179;SDS011;11758;45.756;11.432;2023-02-01T02:41:19;48.27;;;19.33;;
23179;SDS011;11758;45.756;11.432;2023-02-01T02:44:33;46.90;;;19.67;;
23179;SDS011;11758;45.756;11.432;2023-02-01T02:47:16;50.03;;;19.53;;
23179;SDS011;11758;45.756;11.432;2023-02-01T02:49:51;50.33;;;19.80;;
23179;SDS011;11758;45.756;11.432;2023-02-01T02:52:39;53.80;;;19.07;;
23179;SDS011;11758;45.756;11.432;2023-02-01T02:55:26;53.90;;;20.50;;
23179;SDS011;11758;45.756;11.432;2023-02-01T02:57:52;46.43;;;20.70;;
23179;SDS011;11758;45.756;11.432;2023-02-01T03:00:37;52.57;;;21.53;;
23179;SDS011;11758;45.756;11.432;2023-02-01T03:03:23;56.83;;;21.73;;
23179;SDS011;11758;45.756;11.432;2023-02-01T03:06:14;54.03;;;21.40;;
23179;SDS011;11758;45.756;11.432;2023-02-01T03:08:42;54.93;;;21.43;;
23179;SDS011;11758;45.756;11.432;2023-02-01T03:11:11;60.87;;;24.20;;
23179;SDS011;11758;45.756;11.432;2023-02-01T03:13:57;55.93;;;22.37;;
23179;SDS011;11758;45.756;11.432;2023-02-01T03:16:28;64.87;;;24.77;;
23179;SDS011;11758;45.756;11.432;2023-02-01T03:18:58;68.00;;;25.00;;
23179;SDS011;11758;45.756;11.432;2023-02-01T03:21:30;70.77;;;24.87;;
23179;SDS011;11758;45.756;11.432;2023-02-01T03:23:59;60.03;;;25.00;;
23179;SDS011;11758;45.756;11.432;2023-02-01T03:26:26;73.63;;;24.20;;
23179;SDS011;11758;45.756;11.432;2023-02-01T03:28:55;66.33;;;24.03;;
23179;SDS011;11758;45.756;11.432;2023-02-01T03:31:23;58.90;;;23.10;;
23179;SDS011;11758;45.756;11.432;2023-02-01T03:33:49;58.00;;;22.30;;
23179;SDS011;11758;45.756;11.432;2023-02-01T03:36:26;56.67;;;22.07;;
23179;SDS011;11758;45.756;11.432;2023-02-01T03:39:00;57.60;;;21.87;;
23179;SDS011;11758;45.756;11.432;2023-02-01T03:41:40;57.63;;;20.83;;
23179;SDS011;11758;45.756;11.432;2023-02-01T03:46:33;45.83;;;18.47;;
23179;SDS011;11758;45.756;11.432;2023-02-01T03:49:02;45.30;;;17.03;;
23179;SDS011;11758;45.756;11.432;2023-02-01T03:51:29;43.77;;;17.57;;
23179;SDS011;11758;45.756;11.432;2023-02-01T03:53:55;49.37;;;18.20;;
23179;SDS011;11758;45.756;11.432;2023-02-01T03:56:22;51.00;;;19.30;;
23179;SDS011;11758;45.756;11.432;2023-02-01T03:58:49;51.50;;;19.57;;
23179;SDS011;11758;45.756;11.432;2023-02-01T04:01:24;49.30;;;20.07;;
23179;SDS011;11758;45.756;11.432;2023-02-01T04:03:51;52.70;;;19.97;;
23179;SDS011;11758;45.756;11.432;2023-02-01T04:06:17;42.97;;;18.30;;
23179;SDS011;11758;45.756;11.432;2023-02-01T04:08:43;54.23;;;18.90;;
23179;SDS011;11758;45.756;11.432;2023-02-01T04:11:09;45.67;;;18.37;;
23179;SDS011;11758;45.756;11.432;2023-02-01T04:13:35;49.20;;;19.43;;
23179;SDS011;11758;45.756;11.432;2023-02-01T04:16:01;47.17;;;19.07;;
23179;SDS011;11758;45.756;11.432;2023-02-01T04:18:27;44.47;;;16.67;;
23179;SDS011;11758;45.756;11.432;2023-02-01T04:20:54;46.43;;;18.23;;
23179;SDS011;11758;45.756;11.432;2023-02-01T04:23:20;44.77;;;16.53;;
23179;SDS011;11758;45.756;11.432;2023-02-01T04:25:47;46.30;;;16.93;;
23179;SDS011;11758;45.756;11.432;2023-02-01T04:28:13;38.17;;;14.80;;
23179;SDS011;11758;45.756;11.432;2023-02-01T04:30:39;45.50;;;16.23;;
23179;SDS011;11758;45.756;11.432;2023-02-01T04:33:05;44.30;;;15.93;;
23179;SDS011;11758;45.756;11.432;2023-02-01T04:35:31;42.77;;;16.23;;
23179;SDS011;11758;45.756;11.432;2023-02-01T04:37:57;39.93;;;15.10;;
23179;SDS011;11758;45.756;11.432;2023-02-01T04:40:23;35.80;;;15.50;;
23179;SDS011;11758;45.756;11.432;2023-02-01T04:42:49;40.37;;;15.67;;
23179;SDS011;11758;45.756;11.432;2023-02-01T04:45:15;36.73;;;15.40;;
23179;SDS011;11758;45.756;11.432;2023-02-01T04:47:42;46.53;;;17.33;;
23179;SDS011;11758;45.756;11.432;2023-02-01T04:50:08;49.83;;;18.27;;
23179;SDS011;11758;45.756;11.432;2023-02-01T04:52:35;38.20;;;16.63;;
23179;SDS011;11758;45.756;11.432;2023-02-01T04:55:02;47.73;;;17.57;;
23179;SDS011;11758;45.756;11.432;2023-02-01T04:57:28;34.83;;;15.60;;
23179;SDS011;11758;45.756;11.432;2023-02-01T04:59:54;41.33;;;15.77;;
23179;SDS011;11758;45.756;11.432;2023-02-01T05:02:21;43.80;;;16.20;;
23179;SDS011;11758;45.756;11.432;2023-02-01T05:04:47;41.63;;;16.83;;
23179;SDS011;11758;45.756;11.432;2023-02-01T05:07:15;42.60;;;17.10;;
23179;SDS011;11758;45.756;11.432;2023-02-01T05:09:41;49.70;;;19.63;;
23179;SDS011;11758;45.756;11.432;2023-02-01T05:12:08;61.47;;;24.27;;
23179;SDS011;11758;45.756;11.432;2023-02-01T05:14:53;69.60;;;25.73;;
23179;SDS011;11758;45.756;11.432;2023-02-01T05:17:19;48.17;;;19.30;;
23179;SDS011;11758;45.756;11.432;2023-02-01T05:19:46;50.37;;;18.90;;
23179;SDS011;11758;45.756;11.432;2023-02-01T05:22:12;48.70;;;19.83;;
23179;SDS011;11758;45.756;11.432;2023-02-01T05:24:39;49.27;;;19.23;;
23179;SDS011;11758;45.756;11.432;2023-02-01T05:27:05;52.90;;;20.60;;
23179;SDS011;11758;45.756;11.432;2023-02-01T05:29:31;50.83;;;19.60;;
23179;SDS011;11758;45.756;11.432;2023-02-01T05:31:57;46.10;;;18.80;;
23179;SDS011;11758;45.756;11.432;2023-02-01T05:34:23;42.73;;;18.23;;
23179;SDS011;11758;45.756;11.432;2023-02-01T05:36:49;41.33;;;18.10;;
23179;SDS011;11758;45.756;11.432;2023-02-01T05:39:15;54.23;;;19.63;;
23179;SDS011;11758;45.756;11.432;2023-02-01T05:41:41;51.23;;;20.00;;
23179;SDS011;11758;45.756;11.432;2023-02-01T05:44:08;55.33;;;21.33;;
23179;SDS011;11758;45.756;11.432;2023-02-01T05:46:34;49.60;;;19.87;;
23179;SDS011;11758;45.756;11.432;2023-02-01T05:49:05;47.73;;;20.10;;
23179;SDS011;11758;45.756;11.432;2023-02-01T05:51:32;45.40;;;19.33;;
23179;SDS011;11758;45.756;11.432;2023-02-01T05:53:59;47.97;;;19.30;;
23179;SDS011;11758;45.756;11.432;2023-02-01T05:56:25;54.93;;;18.53;;
23179;SDS011;11758;45.756;11.432;2023-02-01T05:58:51;46.63;;;19.17;;
23179;SDS011;11758;45.756;11.432;2023-02-01T06:01:17;57.07;;;20.73;;
23179;SDS011;11758;45.756;11.432;2023-02-01T06:03:43;49.27;;;20.53;;
23179;SDS011;11758;45.756;11.432;2023-02-01T06:06:10;48.43;;;18.50;;
23179;SDS011;11758;45.756;11.432;2023-02-01T06:08:36;52.90;;;20.03;;
23179;SDS011;11758;45.756;11.432;2023-02-01T06:11:05;43.30;;;16.70;;
23179;SDS011;11758;45.756;11.432;2023-02-01T06:13:32;44.27;;;16.83;;
23179;SDS011;11758;45.756;11.432;2023-02-01T06:15:58;43.87;;;16.00;;
23179;SDS011;11758;45.756;11.432;2023-02-01T06:18:24;39.07;;;16.77;;
23179;SDS011;11758;45.756;11.432;2023-02-01T06:20:54;46.80;;;18.53;;
23179;SDS011;11758;45.756;11.432;2023-02-01T06:23:20;43.77;;;19.90;;
23179;SDS011;11758;45.756;11.432;2023-02-01T06:25:49;41.73;;;17.13;;
23179;SDS011;11758;45.756;11.432;2023-02-01T06:28:16;47.50;;;18.93;;
23179;SDS011;11758;45.756;11.432;2023-02-01T06:30:42;43.93;;;19.03;;
23179;SDS011;11758;45.756;11.432;2023-02-01T06:33:11;52.07;;;20.33;;
23179;SDS011;11758;45.756;11.432;2023-02-01T06:35:39;55.23;;;20.23;;
23179;SDS011;11758;45.756;11.432;2023-02-01T06:38:07;47.07;;;19.47;;
23179;SDS011;11758;45.756;11.432;2023-02-01T06:40:33;47.73;;;20.07;;
23179;SDS011;11758;45.756;11.432;2023-02-01T06:43:00;41.93;;;18.83;;
23179;SDS011;11758;45.756;11.432;2023-02-01T06:45:26;47.50;;;19.00;;
23179;SDS011;11758;45.756;11.432;2023-02-01T06:47:52;46.70;;;18.70;;
23179;SDS011;11758;45.756;11.432;2023-02-01T06:50:18;45.13;;;18.13;;
23179;SDS011;11758;45.756;11.432;2023-02-01T06:52:45;49.17;;;19.23;;
23179;SDS011;11758;45.756;11.432;2023-02-01T06:55:11;49.57;;;18.80;;
23179;SDS011;11758;45.756;11.432;2023-02-01T06:57:38;49.10;;;18.93;;
23179;SDS011;11758;45.756;11.432;2023-02-01T07:00:04;44.43;;;18.43;;
23179;SDS011;11758;45.756;11.432;2023-02-01T07:02:31;48.33;;;18.20;;
23179;SDS011;11758;45.756;11.432;2023-02-01T07:04:57;45.90;;;18.27;;
23179;SDS011;11758;45.756;11.432;2023-02-01T07:07:23;54.37;;;20.10;;
23179;SDS011;11758;45.756;11.432;2023-02-01T07:09:49;50.27;;;21.73;;
23179;SDS011;11758;45.756;11.432;2023-02-01T07:12:15;44.90;;;17.83;;
23179;SDS011;11758;45.756;11.432;2023-02-01T07:14:41;43.67;;;19.07;;
23179;SDS011;11758;45.756;11.432;2023-02-01T07:17:08;53.70;;;18.87;;
23179;SDS011;11758;45.756;11.432;2023-02-01T07:19:34;45.00;;;18.80;;
23179;SDS011;11758;45.756;11.432;2023-02-01T07:22:00;44.83;;;18.83;;
23179;SDS011;11758;45.756;11.432;2023-02-01T07:24:26;42.83;;;19.07;;
23179;SDS011;11758;45.756;11.432;2023-02-01T07:26:52;45.93;;;20.60;;
23179;SDS011;11758;45.756;11.432;2023-02-01T07:29:18;52.57;;;21.00;;
23179;SDS011;11758;45.756;11.432;2023-02-01T07:31:45;50.27;;;20.00;;
23179;SDS011;11758;45.756;11.432;2023-02-01T07:34:11;56.27;;;20.77;;
23179;SDS011;11758;45.756;11.432;2023-02-01T07:36:37;64.10;;;23.17;;
23179;SDS011;11758;45.756;11.432;2023-02-01T07:39:04;57.90;;;22.97;;
23179;SDS011;11758;45.756;11.432;2023-02-01T07:41:30;61.83;;;22.43;;
23179;SDS011;11758;45.756;11.432;2023-02-01T07:43:56;50.67;;;20.80;;
23179;SDS011;11758;45.756;11.432;2023-02-01T07:46:22;38.23;;;16.00;;
23179;SDS011;11758;45.756;11.432;2023-02-01T07:48:49;37.07;;;15.30;;
23179;SDS011;11758;45.756;11.432;2023-02-01T07:51:15;41.13;;;15.03;;
23179;SDS011;11758;45.756;11.432;2023-02-01T07:53:44;38.87;;;16.23;;
23179;SDS011;11758;45.756;11.432;2023-02-01T07:56:12;37.93;;;14.10;;
23179;SDS011;11758;45.756;11.432;2023-02-01T07:58:38;167.60;;;65.83;;
23179;SDS011;11758;45.756;11.432;2023-02-01T08:01:04;48.40;;;22.07;;
23179;SDS011;11758;45.756;11.432;2023-02-01T08:03:46;51.63;;;23.77;;
23179;SDS011;11758;45.756;11.432;2023-02-01T08:06:12;44.97;;;22.37;;
23179;SDS011;11758;45.756;11.432;2023-02-01T08:08:39;90.93;;;38.20;;
23179;SDS011;11758;45.756;11.432;2023-02-01T08:11:05;46.37;;;20.33;;
23179;SDS011;11758;45.756;11.432;2023-02-01T08:13:33;42.73;;;22.40;;
23179;SDS011;11758;45.756;11.432;2023-02-01T08:16:00;36.27;;;18.03;;
23179;SDS011;11758;45.756;11.432;2023-02-01T08:18:27;42.27;;;17.70;;
23179;SDS011;11758;45.756;11.432;2023-02-01T08:20:53;55.50;;;22.60;;
23179;SDS011;11758;45.756;11.432;2023-02-01T08:23:19;31.70;;;13.23;;
23179;SDS011;11758;45.756;11.432;2023-02-01T08:25:45;26.90;;;13.03;;
23179;SDS011;11758;45.756;11.432;2023-02-01T08:28:12;30.23;;;14.00;;
23179;SDS011;11758;45.756;11.432;2023-02-01T08:30:38;31.23;;;14.63;;
23179;SDS011;11758;45.756;11.432;2023-02-01T08:33:05;40.27;;;17.83;;
23179;SDS011;11758;45.756;11.432;2023-02-01T08:35:32;42.90;;;15.33;;
23179;SDS011;11758;45.756;11.432;2023-02-01T08:38:00;32.17;;;12.93;;
23179;SDS011;11758;45.756;11.432;2023-02-01T08:40:26;24.83;;;11.33;;
23179;SDS011;11758;45.756;11.432;2023-02-01T08:42:53;27.33;;;11.57;;
23179;SDS011;11758;45.756;11.432;2023-02-01T08:47:45;37.43;;;14.77;;
23179;SDS011;11758;45.756;11.432;2023-02-01T08:50:14;41.37;;;17.10;;
23179;SDS011;11758;45.756;11.432;2023-02-01T08:52:40;43.80;;;17.57;;
23179;SDS011;11758;45.756;11.432;2023-02-01T08:55:07;53.60;;;22.70;;
23179;SDS011;11758;45.756;11.432;2023-02-01T08:57:33;54.13;;;22.50;;
23179;SDS011;11758;45.756;11.432;2023-02-01T09:00:00;58.37;;;23.47;;
23179;SDS011;11758;45.756;11.432;2023-02-01T09:02:26;58.33;;;25.40;;
23179;SDS011;11758;45.756;11.432;2023-02-01T09:04:53;59.73;;;26.40;;
23179;SDS011;11758;45.756;11.432;2023-02-01T09:07:19;74.03;;;27.60;;
23179;SDS011;11758;45.756;11.432;2023-02-01T09:09:45;68.37;;;28.77;;
23179;SDS011;11758;45.756;11.432;2023-02-01T09:12:11;63.30;;;27.27;;
23179;SDS011;11758;45.756;11.432;2023-02-01T09:14:37;59.83;;;25.53;;
23179;SDS011;11758;45.756;11.432;2023-02-01T09:17:03;52.13;;;22.53;;
23179;SDS011;11758;45.756;11.432;2023-02-01T09:19:30;54.13;;;23.87;;
23179;SDS011;11758;45.756;11.432;2023-02-01T09:21:56;54.33;;;23.90;;
23179;SDS011;11758;45.756;11.432;2023-02-01T09:24:22;53.37;;;22.37;;
23179;SDS011;11758;45.756;11.432;2023-02-01T09:26:49;52.33;;;22.60;;
23179;SDS011;11758;45.756;11.432;2023-02-01T09:29:15;57.93;;;22.77;;
23179;SDS011;11758;45.756;11.432;2023-02-01T09:31:41;57.97;;;23.63;;
23179;SDS011;11758;45.756;11.432;2023-02-01T09:34:07;58.73;;;24.50;;
23179;SDS011;11758;45.756;11.432;2023-02-01T09:36:34;70.63;;;28.00;;
23179;SDS011;11758;45.756;11.432;2023-02-01T09:39:00;62.23;;;26.67;;
23179;SDS011;11758;45.756;11.432;2023-02-01T09:43:59;68.73;;;28.57;;
23179;SDS011;11758;45.756;11.432;2023-02-01T09:46:28;73.93;;;29.53;;
23179;SDS011;11758;45.756;11.432;2023-02-01T09:48:55;66.73;;;28.80;;
23179;SDS011;11758;45.756;11.432;2023-02-01T09:51:34;72.47;;;30.73;;
23179;SDS011;11758;45.756;11.432;2023-02-01T09:54:04;73.40;;;31.00;;
23179;SDS011;11758;45.756;11.432;2023-02-01T09:57:14;73.83;;;30.73;;
23179;SDS011;11758;45.756;11.432;2023-02-01T09:59:40;70.53;;;31.97;;
23179;SDS011;11758;45.756;11.432;2023-02-01T10:02:20;74.60;;;32.40;;
23179;SDS011;11758;45.756;11.432;2023-02-01T10:04:47;74.60;;;32.73;;
23179;SDS011;11758;45.756;11.432;2023-02-01T10:12:35;82.40;;;34.30;;
23179;SDS011;11758;45.756;11.432;2023-02-01T10:20:12;74.13;;;33.58;;
23179;SDS011;11758;45.756;11.432;2023-02-01T10:22:44;76.78;;;32.55;;
23179;SDS011;11758;45.756;11.432;2023-02-01T10:27:48;79.53;;;33.85;;
23179;SDS011;11758;45.756;11.432;2023-02-01T10:30:27;85.60;;;36.17;;
23179;SDS011;11758;45.756;11.432;2023-02-01T10:33:07;77.70;;;34.72;;
23179;SDS011;11758;45.756;11.432;2023-02-01T10:35:39;81.97;;;35.22;;
23179;SDS011;11758;45.756;11.432;2023-02-01T10:38:13;88.47;;;38.45;;
23179;SDS011;11758;45.756;11.432;2023-02-01T10:40:42;86.80;;;38.08;;
23179;SDS011;11758;45.756;11.432;2023-02-01T10:43:09;86.50;;;36.60;;
23179;SDS011;11758;45.756;11.432;2023-02-01T10:45:35;85.10;;;37.45;;
23179;SDS011;11758;45.756;11.432;2023-02-01T10:48:04;95.05;;;40.50;;
23179;SDS011;11758;45.756;11.432;2023-02-01T10:50:44;95.18;;;40.30;;
23179;SDS011;11758;45.756;11.432;2023-02-01T10:53:15;97.25;;;41.47;;
23179;SDS011;11758;45.756;11.432;2023-02-01T10:58:18;92.40;;;40.90;;
23179;SDS011;11758;45.756;11.432;2023-02-01T11:06:13;95.15;;;42.00;;
23179;SDS011;11758;45.756;11.432;2023-02-01T11:08:51;95.72;;;42.63;;
23179;SDS011;11758;45.756;11.432;2023-02-01T11:11:22;96.57;;;42.72;;
23179;SDS011;11758;45.756;11.432;2023-02-01T11:14:01;89.15;;;39.97;;
23179;SDS011;11758;45.756;11.432;2023-02-01T11:16:37;91.53;;;42.05;;
23179;SDS011;11758;45.756;11.432;2023-02-01T11:19:04;92.57;;;41.05;;
23179;SDS011;11758;45.756;11.432;2023-02-01T11:21:30;91.53;;;41.45;;
23179;SDS011;11758;45.756;11.432;2023-02-01T11:24:00;92.18;;;40.20;;
23179;SDS011;11758;45.756;11.432;2023-02-01T11:26:26;87.95;;;40.83;;
23179;SDS011;11758;45.756;11.432;2023-02-01T11:28:54;91.47;;;42.15;;
23179;SDS011;11758;45.756;11.432;2023-02-01T11:31:22;92.45;;;41.13;;
23179;SDS011;11758;45.756;11.432;2023-02-01T11:33:50;82.90;;;38.60;;
23179;SDS011;11758;45.756;11.432;2023-02-01T11:36:21;84.25;;;40.15;;
23179;SDS011;11758;45.756;11.432;2023-02-01T11:39:06;86.30;;;40.08;;
23179;SDS011;11758;45.756;11.432;2023-02-01T11:41:42;86.18;;;40.45;;
23179;SDS011;11758;45.756;11.432;2023-02-01T11:44:22;90.60;;;41.47;;
23179;SDS011;11758;45.756;11.432;2023-02-01T11:46:48;89.72;;;39.83;;
23179;SDS011;11758;45.756;11.432;2023-02-01T11:49:25;81.10;;;39.80;;
23179;SDS011;11758;45.756;11.432;2023-02-01T11:55:08;86.03;;;40.20;;
23179;SDS011;11758;45.756;11.432;2023-02-01T12:02:50;92.72;;;42.80;;
23179;SDS011;11758;45.756;11.432;2023-02-01T12:05:34;88.45;;;42.95;;
23179;SDS011;11758;45.756;11.432;2023-02-01T12:13:23;90.03;;;43.08;;
23179;SDS011;11758;45.756;11.432;2023-02-01T12:21:02;92.07;;;44.53;;
23179;SDS011;11758;45.756;11.432;2023-02-01T12:36:12;93.65;;;43.30;;
23179;SDS011;11758;45.756;11.432;2023-02-01T12:38:45;89.70;;;42.17;;
23179;SDS011;11758;45.756;11.432;2023-02-01T12:46:31;103.88;;;47.45;;
23179;SDS011;11758;45.756;11.432;2023-02-01T12:51:44;101.63;;;46.97;;
23179;SDS011;11758;45.756;11.432;2023-02-01T12:56:44;103.22;;;47.22;;
23179;SDS011;11758;45.756;11.432;2023-02-01T12:59:16;102.85;;;47.75;;
23179;SDS011;11758;45.756;11.432;2023-02-01T13:01:48;100.60;;;47.53;;
23179;SDS011;11758;45.756;11.432;2023-02-01T13:04:19;99.18;;;47.17;;
23179;SDS011;11758;45.756;11.432;2023-02-01T13:06:47;102.88;;;47.83;;
23179;SDS011;11758;45.756;11.432;2023-02-01T13:11:44;102.57;;;48.40;;
23179;SDS011;11758;45.756;11.432;2023-02-01T13:16:43;115.05;;;49.00;;
23179;SDS011;11758;45.756;11.432;2023-02-01T13:21:43;107.32;;;49.85;;
23179;SDS011;11758;45.756;11.432;2023-02-01T13:24:20;111.38;;;51.53;;
23179;SDS011;11758;45.756;11.432;2023-02-01T13:26:54;97.55;;;48.83;;
23179;SDS011;11758;45.756;11.432;2023-02-01T13:29:22;108.72;;;50.30;;
23179;SDS011;11758;45.756;11.432;2023-02-01T13:44:43;101.63;;;49.30;;
23179;SDS011;11758;45.756;11.432;2023-02-01T13:47:19;111.25;;;49.42;;
23179;SDS011;11758;45.756;11.432;2023-02-01T13:49:47;106.28;;;49.83;;
23179;SDS011;11758;45.756;11.432;2023-02-01T13:52:27;111.82;;;50.80;;
23179;SDS011;11758;45.756;11.432;2023-02-01T13:55:29;108.57;;;51.13;;
23179;SDS011;11758;45.756;11.432;2023-02-01T13:57:51;113.78;;;52.78;;
23179;SDS011;11758;45.756;11.432;2023-02-01T14:26:52;105.93;;;51.00;;
23179;SDS011;11758;45.756;11.432;2023-02-01T14:34:17;115.55;;;54.22;;
23179;SDS011;11758;45.756;11.432;2023-02-01T14:36:49;134.70;;;58.80;;
23179;SDS011;11758;45.756;11.432;2023-02-01T14:39:23;119.93;;;53.53;;
23179;SDS011;11758;45.756;11.432;2023-02-01T14:41:52;120.20;;;53.35;;
23179;SDS011;11758;45.756;11.432;2023-02-01T14:44:23;113.78;;;52.47;;
23179;SDS011;11758;45.756;11.432;2023-02-01T14:49:33;119.45;;;54.08;;
23179;SDS011;11758;45.756;11.432;2023-02-01T14:52:00;115.30;;;53.75;;
23179;SDS011;11758;45.756;11.432;2023-02-01T14:54:28;114.35;;;53.40;;
23179;SDS011;11758;45.756;11.432;2023-02-01T14:56:54;115.63;;;53.92;;
23179;SDS011;11758;45.756;11.432;2023-02-01T14:59:21;117.00;;;53.78;;
23179;SDS011;11758;45.756;11.432;2023-02-01T15:01:50;115.32;;;53.72;;
23179;SDS011;11758;45.756;11.432;2023-02-01T15:04:17;113.40;;;52.70;;
23179;SDS011;11758;45.756;11.432;2023-02-01T15:09:26;108.55;;;52.40;;
23179;SDS011;11758;45.756;11.432;2023-02-01T15:11:54;109.18;;;52.92;;
23179;SDS011;11758;45.756;11.432;2023-02-01T15:14:21;125.93;;;56.97;;
23179;SDS011;11758;45.756;11.432;2023-02-01T15:16:47;117.45;;;54.90;;
23179;SDS011;11758;45.756;11.432;2023-02-01T15:19:19;120.80;;;55.65;;
23179;SDS011;11758;45.756;11.432;2023-02-01T15:21:48;108.18;;;52.35;;
23179;SDS011;11758;45.756;11.432;2023-02-01T15:24:19;121.13;;;54.50;;
23179;SDS011;11758;45.756;11.432;2023-02-01T15:26:45;120.45;;;53.63;;
23179;SDS011;11758;45.756;11.432;2023-02-01T15:29:12;127.78;;;57.28;;
23179;SDS011;11758;45.756;11.432;2023-02-01T15:31:42;126.10;;;55.08;;
23179;SDS011;11758;45.756;11.432;2023-02-01T15:34:09;126.95;;;55.50;;
23179;SDS011;11758;45.756;11.432;2023-02-01T15:36:35;113.05;;;51.88;;
23179;SDS011;11758;45.756;11.432;2023-02-01T15:39:13;121.78;;;55.60;;
23179;SDS011;11758;45.756;11.432;2023-02-01T15:41:55;107.32;;;49.65;;
23179;SDS011;11758;45.756;11.432;2023-02-01T15:44:37;110.25;;;49.20;;
23179;SDS011;11758;45.756;11.432;2023-02-01T15:47:12;117.15;;;51.63;;
23179;SDS011;11758;45.756;11.432;2023-02-01T15:49:40;115.07;;;51.72;;
23179;SDS011;11758;45.756;11.432;2023-02-01T15:52:26;112.90;;;52.65;;
23179;SDS011;11758;45.756;11.432;2023-02-01T15:54:59;123.57;;;53.42;;
23179;SDS011;11758;45.756;11.432;2023-02-01T15:57:40;118.30;;;52.60;;
23179;SDS011;11758;45.756;11.432;2023-02-01T16:03:01;108.07;;;49.30;;
23179;SDS011;11758;45.756;11.432;2023-02-01T16:08:01;120.57;;;52.35;;
23179;SDS011;11758;45.756;11.432;2023-02-01T16:10:28;107.65;;;49.80;;
23179;SDS011;11758;45.756;11.432;2023-02-01T16:12:55;113.75;;;49.38;;
23179;SDS011;11758;45.756;11.432;2023-02-01T16:15:25;111.05;;;49.15;;
23179;SDS011;11758;45.756;11.432;2023-02-01T16:17:54;117.85;;;50.08;;
23179;SDS011;11758;45.756;11.432;2023-02-01T16:20:20;121.32;;;49.13;;
23179;SDS011;11758;45.756;11.432;2023-02-01T16:22:47;113.35;;;48.20;;
23179;SDS011;11758;45.756;11.432;2023-02-01T16:25:15;105.18;;;48.10;;
23179;SDS011;11758;45.756;11.432;2023-02-01T16:27:43;103.40;;;46.45;;
23179;SDS011;11758;45.756;11.432;2023-02-01T16:30:09;111.47;;;48.90;;
23179;SDS011;11758;45.756;11.432;2023-02-01T16:32:36;112.65;;;48.90;;
23179;SDS011;11758;45.756;11.432;2023-02-01T16:35:05;119.20;;;50.13;;
23179;SDS011;11758;45.756;11.432;2023-02-01T16:37:32;109.63;;;47.00;;
23179;SDS011;11758;45.756;11.432;2023-02-01T16:40:01;111.57;;;49.10;;
23179;SDS011;11758;45.756;11.432;2023-02-01T16:42:27;105.20;;;47.83;;
23179;SDS011;11758;45.756;11.432;2023-02-01T16:44:57;113.15;;;48.45;;